Time;durP1;ratioP1;P1;durP2;ratioP2;P2;SDS_P1;SDS_P2;PMS_P1;PMS_P2;Temp;Humidity;BMP_temperature;BMP_pressure;BME280_temperature;BME280_humidity;BME280_pressure;Samples;Min_cycle;Max_cycle;Signal;HPM_P1;HPM_P2
2023/04/20 00:00:56;;;;;;;3.83;1.30;;;;;;;-146.25;53.38;52133.00;2096261;28;37020;-71
2023/04/20 00:02:07;;;;;;;4.82;1.02;;;;;;;-146.25;52.08;52153.28;2096369;28;35813;-70
2023/04/20 00:03:09;;;;;;;3.47;1.13;;;;;;;-146.25;51.93;52157.34;2096924;28;35645;-71
2023/04/20 00:04:11;;;;;;;5.47;1.38;;;;;;;-146.25;52.63;52155.31;2097051;28;33641;-71
2023/04/20 00:05:13;;;;;;;2.40;1.10;;;;;;;-146.25;52.61;52137.06;2096823;28;33012;-71
2023/04/20 00:06:15;;;;;;;2.55;1.35;;;;;;;-146.25;52.53;52120.84;2096991;28;34025;-71
2023/04/20 00:07:17;;;;;;;4.60;1.40;;;;;;;-146.25;53.72;52167.47;2096855;28;36072;-71
2023/04/20 00:08:18;;;;;;;3.55;1.45;;;;;;;-146.25;53.17;52137.06;2096435;28;33218;-71
2023/04/20 00:09:20;;;;;;;3.88;1.40;;;;;;;-146.25;51.92;52100.56;2096963;28;33960;-71
2023/04/20 00:10:22;;;;;;;3.75;1.20;;;;;;;-146.25;52.26;52128.94;2096867;28;36024;-71
2023/04/20 00:11:27;;;;;;;3.63;1.42;;;;;;;-146.25;51.82;52175.56;2097471;28;20044;-71
2023/04/20 00:12:29;;;;;;;3.35;1.23;;;;;;;-146.25;52.29;52126.91;2096943;28;30353;-71
2023/04/20 00:13:31;;;;;;;4.15;1.13;;;;;;;-146.25;51.40;52153.28;2096912;28;33099;-71
2023/04/20 00:14:32;;;;;;;4.30;1.50;;;;;;;-146.25;51.60;52145.16;2097428;28;20822;-71
2023/04/20 00:15:34;;;;;;;4.95;1.25;;;;;;;-146.25;51.89;52137.06;2096814;28;37868;-71
2023/04/20 00:16:36;;;;;;;2.80;1.42;;;;;;;-146.25;51.47;52130.97;2096770;28;36782;-71
2023/04/20 00:17:38;;;;;;;2.22;1.08;;;;;;;-146.25;50.53;52116.78;2096741;28;26916;-71
2023/04/20 00:18:40;;;;;;;3.67;1.67;;;;;;;-146.25;50.38;52124.91;2096852;28;35678;-71
2023/04/20 00:19:45;;;;;;;3.13;1.25;;;;;;;-146.25;50.28;52163.41;2097558;28;20695;-71
2023/04/20 00:20:46;;;;;;;3.53;1.45;;;;;;;-146.25;50.72;52141.13;2096477;28;38819;-71
2023/04/20 00:21:48;;;;;;;3.13;1.38;;;;;;;-146.25;50.58;52157.34;2096569;28;37878;-71
2023/04/20 00:22:50;;;;;;;2.03;1.08;;;;;;;-146.25;51.73;52137.06;2097411;28;20164;-71
2023/04/20 00:23:52;;;;;;;4.60;1.45;;;;;;;-146.25;50.98;52149.22;2096464;28;37244;-71
2023/04/20 00:24:56;;;;;;;3.72;1.42;;;;;;;-146.25;50.50;52143.13;2096853;28;32736;-71
2023/04/20 00:25:58;;;;;;;3.45;1.27;;;;;;;-146.25;51.04;52100.56;2096591;28;36033;-71
2023/04/20 00:26:59;;;;;;;7.13;1.83;;;;;;;-146.25;50.99;52122.88;2096831;28;37082;-71
2023/04/20 00:28:02;;;;;;;2.95;1.25;;;;;;;-146.25;51.00;52149.22;2097425;28;20815;-71
2023/04/20 00:29:04;;;;;;;4.10;1.35;;;;;;;-146.25;51.00;52157.34;2096038;28;29819;-71
2023/04/20 00:30:09;;;;;;;2.33;0.90;;;;;;;-146.25;51.12;52137.06;2095959;28;20048;-71
2023/04/20 00:31:13;;;;;;;2.35;1.15;;;;;;;-146.25;50.57;52137.06;2096692;28;20057;-71
2023/04/20 00:32:14;;;;;;;2.53;1.10;;;;;;;-146.25;50.94;52151.25;2104870;28;20855;-69
2023/04/20 00:33:16;;;;;;;5.28;1.50;;;;;;;-146.25;51.06;52141.13;2105032;28;20033;-71
2023/04/20 00:34:18;;;;;;;3.33;1.60;;;;;;;-146.25;50.38;52151.25;2097070;28;20041;-71
2023/04/20 00:35:20;;;;;;;6.38;1.17;;;;;;;-146.25;49.83;52112.72;2088050;28;20680;-71
2023/04/20 00:36:23;;;;;;;3.25;1.27;;;;;;;-146.25;49.95;52147.19;2088761;28;20045;-71
2023/04/20 00:37:25;;;;;;;4.07;1.10;;;;;;;-146.25;50.24;52133.00;2104373;28;32620;-71
2023/04/20 00:38:29;;;;;;;3.53;1.05;;;;;;;-146.25;49.97;52157.34;2104560;28;20124;-71
2023/04/20 00:39:35;;;;;;;2.30;1.10;;;;;;;-146.25;50.03;52137.06;2104057;28;20048;-71
2023/04/20 00:40:37;;;;;;;2.55;1.05;;;;;;;-146.25;49.73;52122.88;2096912;28;20036;-71
2023/04/20 00:41:41;;;;;;;2.97;1.02;;;;;;;-146.25;49.76;52106.66;2096864;28;31960;-71
2023/04/20 00:42:43;;;;;;;2.30;1.15;;;;;;;-146.25;49.84;52149.22;2104400;28;25141;-71
2023/04/20 00:43:53;;;;;;;2.03;1.27;;;;;;;-146.25;50.12;52173.56;2104749;28;24289;-71
2023/04/20 00:44:54;;;;;;;4.65;1.20;;;;;;;-146.25;49.87;52137.06;2096353;28;26206;-72
2023/04/20 00:45:56;;;;;;;6.30;1.30;;;;;;;-146.25;49.88;52112.72;2096458;28;20040;-71
2023/04/20 00:46:59;;;;;;;2.00;1.05;;;;;;;-146.25;49.78;52112.72;2087772;28;20131;-71
2023/04/20 00:48:01;;;;;;;2.95;1.15;;;;;;;-146.25;50.14;52185.72;2096264;28;25997;-71
2023/04/20 00:49:03;;;;;;;3.25;1.02;;;;;;;-146.25;50.34;52157.34;2087877;28;20099;-71
2023/04/20 00:50:07;;;;;;;3.35;1.40;;;;;;;-146.25;50.02;52112.72;2088335;28;20810;-71
2023/04/20 00:51:13;;;;;;;3.65;1.27;;;;;;;-146.25;50.06;52112.72;2088475;28;20042;-71
2023/04/20 00:52:14;;;;;;;3.97;1.20;;;;;;;-146.25;50.37;52126.91;2096558;28;24395;-71
2023/04/20 00:53:17;;;;;;;2.75;1.20;;;;;;;-146.25;50.19;52130.97;2097339;22;29140;-69
2023/04/20 00:54:19;;;;;;;2.28;1.08;;;;;;;-146.25;50.72;52173.56;2056674;28;32253;-68
2023/04/20 00:55:23;;;;;;;3.70;1.10;;;;;;;-146.25;50.91;52149.22;2055992;28;20238;-68
2023/04/20 00:56:26;;;;;;;3.78;1.35;;;;;;;-146.25;50.87;52114.75;2071478;28;27527;-68
2023/04/20 00:57:29;;;;;;;3.33;1.10;;;;;;;-146.25;50.87;52133.00;2072525;28;23493;-68
2023/04/20 00:58:35;;;;;;;3.85;1.38;;;;;;;-146.25;51.15;52102.59;2072782;28;20104;-69
2023/04/20 00:59:36;;;;;;;7.57;1.20;;;;;;;-146.25;51.33;52137.06;2071269;28;20297;-68
2023/04/20 01:00:41;;;;;;;4.35;1.20;;;;;;;-146.25;51.42;52126.91;2071936;28;20137;-68
2023/04/20 01:01:44;;;;;;;3.90;1.17;;;;;;;-146.25;51.89;52161.38;2071762;28;20112;-69
2023/04/20 01:02:46;;;;;;;5.68;1.10;;;;;;;-146.25;51.78;52189.78;2071273;28;24744;-68
2023/04/20 01:03:48;;;;;;;3.88;1.25;;;;;;;-146.25;52.02;52120.84;2071162;28;28126;-68
2023/04/20 01:04:50;;;;;;;3.05;1.23;;;;;;;-146.25;52.15;52137.06;2079476;28;29128;-69
2023/04/20 01:05:52;;;;;;;2.45;0.95;;;;;;;-146.25;52.06;52141.13;2079279;28;24640;-68
2023/04/20 01:06:55;;;;;;;4.47;1.17;;;;;;;-146.25;52.38;52116.78;2079825;28;20042;-67
2023/04/20 01:07:57;;;;;;;4.40;1.10;;;;;;;-146.25;52.54;52108.66;2079032;28;28231;-68
2023/04/20 01:09:03;;;;;;;6.10;1.30;;;;;;;-146.25;52.51;52104.63;2071658;28;20074;-68
2023/04/20 01:10:08;;;;;;;1.98;1.30;;;;;;;-146.25;53.01;52155.31;2071074;28;29693;-67
2023/04/20 01:11:13;;;;;;;3.15;1.27;;;;;;;-146.25;53.27;52157.34;2072582;28;20147;-67
2023/04/20 01:12:15;;;;;;;3.00;0.88;;;;;;;-146.25;53.13;52179.63;2079366;28;28706;-67
2023/04/20 01:13:17;;;;;;;3.88;1.27;;;;;;;-146.25;53.84;52155.31;2071628;28;20078;-68
2023/04/20 01:14:19;;;;;;;5.18;1.50;;;;;;;-146.25;53.82;52133.00;2062901;28;26434;-68
2023/04/20 01:15:21;;;;;;;4.28;0.80;;;;;;;-146.25;54.01;52159.34;2071393;28;30974;-68
2023/04/20 01:16:24;;;;;;;2.25;1.20;;;;;;;-146.25;54.06;52177.59;2070644;28;33550;-68
2023/04/20 01:17:26;;;;;;;2.35;1.10;;;;;;;-146.25;54.23;52147.19;2071532;28;20045;-67
2023/04/20 01:18:28;;;;;;;4.05;1.30;;;;;;;-146.25;54.70;52104.63;2072101;28;20078;-67
2023/04/20 01:19:32;;;;;;;2.70;1.27;;;;;;;-146.25;54.28;52141.13;2072644;28;20053;-68
2023/04/20 01:20:38;;;;;;;3.53;1.48;;;;;;;-146.25;54.73;52165.44;2071309;28;20045;-67
2023/04/20 01:21:40;;;;;;;4.03;1.42;;;;;;;-146.25;54.66;52161.38;2063401;28;32733;-67
2023/04/20 01:22:54;;;;;;;4.43;1.50;;;;;;;-146.25;54.79;52167.47;2063364;28;27768;-68
2023/04/20 01:23:56;;;;;;;4.30;1.27;;;;;;;-146.25;54.95;52108.66;2079120;28;35395;-68
2023/04/20 01:24:58;;;;;;;3.10;1.30;;;;;;;-146.25;54.58;52137.06;2082568;28;20608;-68
2023/04/20 01:26:05;;;;;;;2.88;1.20;;;;;;;-146.25;55.15;52177.59;2071538;28;20827;-68
2023/04/20 01:27:07;;;;;;;4.95;1.30;;;;;;;-146.25;55.43;52159.34;2064054;28;21023;-68
2023/04/20 01:28:08;;;;;;;3.45;1.40;;;;;;;-146.25;55.19;52163.41;2071996;28;26205;-67
2023/04/20 01:29:10;;;;;;;6.40;1.70;;;;;;;-146.25;55.36;52124.91;2079033;28;30092;-66
2023/04/20 01:30:16;;;;;;;6.30;1.40;;;;;;;-146.25;55.46;52165.44;2079319;28;31106;-68
2023/04/20 01:31:17;;;;;;;2.00;1.10;;;;;;;-146.25;55.73;52159.34;2078381;28;26577;-68
2023/04/20 01:32:19;;;;;;;3.35;1.70;;;;;;;-146.25;55.80;52143.13;2071727;28;23312;-67
2023/04/20 01:33:23;;;;;;;3.00;1.45;;;;;;;-146.25;56.00;52130.97;2070646;28;29641;-67
2023/04/20 01:34:26;;;;;;;3.85;1.25;;;;;;;-146.25;56.07;52161.38;2071952;28;20034;-68
2023/04/20 01:35:27;;;;;;;5.55;1.52;;;;;;;-146.25;55.92;52145.16;2078918;28;29908;-68
2023/04/20 01:36:29;;;;;;;3.53;1.33;;;;;;;-146.25;56.27;52153.28;2071726;28;29268;-67
2023/04/20 01:37:31;;;;;;;4.10;1.50;;;;;;;-146.25;56.60;52161.38;2071847;28;28262;-67
2023/04/20 01:38:36;;;;;;;3.53;1.50;;;;;;;-146.25;56.60;52133.00;2072186;28;20046;-68
2023/04/20 01:39:40;;;;;;;4.95;1.35;;;;;;;-146.25;57.15;52120.84;2071407;28;31503;-67
2023/04/20 01:40:44;;;;;;;3.10;1.40;;;;;;;-146.25;57.35;52153.28;2071019;28;22139;-68
2023/04/20 01:41:46;;;;;;;5.13;1.15;;;;;;;-146.25;57.80;52173.56;2071406;28;26922;-67
2023/04/20 01:42:48;;;;;;;3.00;1.27;;;;;;;-146.25;57.86;52153.28;2071320;28;20042;-67
2023/04/20 01:43:50;;;;;;;3.35;1.60;;;;;;;-146.25;58.22;52124.91;2071435;28;20077;-67
2023/04/20 01:44:51;;;;;;;4.57;1.33;;;;;;;-146.25;58.31;52175.56;2079475;28;20892;-68
2023/04/20 01:45:53;;;;;;;5.28;1.50;;;;;;;-146.25;58.51;52159.34;2070739;28;25501;-67
2023/04/20 01:46:55;;;;;;;2.50;1.17;;;;;;;-146.25;58.95;52126.91;2071274;28;22866;-68
2023/04/20 01:48:00;;;;;;;3.40;1.20;;;;;;;-146.25;59.73;52149.22;2079252;28;20049;-67
2023/04/20 01:49:02;;;;;;;3.10;1.25;;;;;;;-146.25;60.05;52122.88;2079480;28;20107;-68
2023/04/20 01:50:05;;;;;;;3.75;1.50;;;;;;;-146.25;60.32;52161.38;2071045;28;20053;-68
2023/04/20 01:51:08;;;;;;;2.85;1.17;;;;;;;-146.25;59.96;52157.34;2071580;28;20116;-68
2023/04/20 01:52:10;;;;;;;6.57;1.23;;;;;;;-146.25;60.88;52137.06;2079032;28;30094;-68
2023/04/20 01:53:12;;;;;;;2.83;1.55;;;;;;;-146.25;61.31;52128.94;2078924;28;29118;-68
2023/04/20 01:54:14;;;;;;;7.28;1.33;;;;;;;-146.25;61.37;52155.31;2079266;28;21014;-68
2023/04/20 01:55:16;;;;;;;4.65;1.45;;;;;;;-146.25;61.52;52163.41;2079163;28;28094;-69
2023/04/20 01:56:20;;;;;;;6.55;1.08;;;;;;;-146.25;61.56;52167.47;2079257;28;20042;-68
2023/04/20 01:57:23;;;;;;;3.05;1.52;;;;;;;-146.25;61.89;52165.44;2079490;28;20049;-67
2023/04/20 01:58:25;;;;;;;2.35;1.15;;;;;;;-146.25;61.92;52183.69;2079414;28;20049;-68
2023/04/20 01:59:27;;;;;;;3.03;1.33;;;;;;;-146.25;61.98;52145.16;2071198;28;20946;-68
2023/04/20 02:00:28;;;;;;;4.57;1.40;;;;;;;-146.25;61.48;52104.63;2069897;28;26696;-68
2023/04/20 02:01:33;;;;;;;5.70;1.60;;;;;;;-146.25;61.60;52149.22;2072005;28;20038;-67
2023/04/20 02:02:34;;;;;;;5.75;1.27;;;;;;;-146.25;61.55;52139.09;2078741;28;23541;-68
2023/04/20 02:03:36;;;;;;;3.47;1.23;;;;;;;-146.25;61.23;52151.25;2078768;28;31301;-68
2023/04/20 02:04:38;;;;;;;3.35;1.35;;;;;;;-146.25;61.29;52112.72;2071026;28;20054;-68
2023/04/20 02:05:40;;;;;;;4.35;1.23;;;;;;;-146.25;61.51;52147.19;2062936;28;20912;-67
2023/04/20 02:06:44;;;;;;;5.18;1.33;;;;;;;-146.25;61.15;52108.66;2062126;28;26753;-67
2023/04/20 02:07:46;;;;;;;4.93;1.02;;;;;;;-146.25;61.10;52167.47;2063227;28;24187;-67
2023/04/20 02:08:48;;;;;;;2.88;1.10;;;;;;;-146.25;61.43;52167.47;2071205;28;20116;-67
2023/04/20 02:09:49;;;;;;;3.90;1.38;;;;;;;-146.25;60.97;52135.03;2071953;28;26837;-68
2023/04/20 02:10:51;;;;;;;3.47;1.20;;;;;;;-146.25;60.99;52161.38;2071340;28;32482;-67
2023/04/20 02:11:55;;;;;;;4.65;1.17;;;;;;;-146.25;60.75;52130.97;2071243;28;39534;-67
2023/04/20 02:12:57;;;;;;;2.78;1.30;;;;;;;-146.25;60.02;52159.34;2072060;28;20120;-67
2023/04/20 02:13:59;;;;;;;2.70;1.20;;;;;;;-146.25;60.69;52149.22;2079098;28;21392;-68
2023/04/20 02:15:01;;;;;;;5.03;1.45;;;;;;;-146.25;61.00;52128.94;2071078;28;20064;-68
2023/04/20 02:16:05;;;;;;;3.45;1.70;;;;;;;-146.25;61.95;52157.34;2063398;28;20984;-67
2023/04/20 02:17:07;;;;;;;2.50;1.20;;;;;;;-146.25;63.72;52116.78;2071049;28;20045;-67
2023/04/20 02:18:09;;;;;;;7.47;1.63;;;;;;;-146.25;63.47;52159.34;2071494;28;25267;-68
2023/04/20 02:19:11;;;;;;;3.00;1.40;;;;;;;-146.25;63.12;52153.28;2070937;28;20944;-67
2023/04/20 02:20:13;;;;;;;3.88;1.30;;;;;;;-146.25;64.45;52135.03;2062373;28;34396;-68
2023/04/20 02:21:15;;;;;;;2.97;1.27;;;;;;;-146.25;64.95;52161.38;2071261;28;20109;-67
2023/04/20 02:22:16;;;;;;;3.15;1.30;;;;;;;-146.25;65.10;52112.72;2072085;28;20039;-68
2023/04/20 02:23:18;;;;;;;5.18;1.55;;;;;;;-146.25;64.81;52130.97;2070836;28;26884;-68
2023/04/20 02:24:20;;;;;;;4.13;1.48;;;;;;;-146.25;64.68;52149.22;2071249;28;24738;-68
2023/04/20 02:25:24;;;;;;;4.15;1.42;;;;;;;-146.25;65.44;52145.16;2071305;28;20132;-67
2023/04/20 02:26:26;;;;;;;2.90;1.60;;;;;;;-146.25;65.90;52167.47;2071556;28;29254;-67
2023/04/20 02:27:28;;;;;;;3.60;1.35;;;;;;;-146.25;66.08;52155.31;2078405;28;27613;-67
2023/04/20 02:28:30;;;;;;;4.35;1.33;;;;;;;-146.25;66.57;52114.75;2071605;28;20045;-67
2023/04/20 02:29:31;;;;;;;5.07;1.40;;;;;;;-146.25;67.24;52161.38;2079137;28;20112;-67
2023/04/20 02:30:33;;;;;;;3.25;1.38;;;;;;;-146.25;66.57;52149.22;2079304;28;20179;-67
2023/04/20 02:31:35;;;;;;;2.50;1.27;;;;;;;-146.25;66.95;52185.72;2078818;28;26130;-67
2023/04/20 02:32:37;;;;;;;3.40;1.58;;;;;;;-146.25;67.45;52193.81;2079195;28;20046;-68
2023/04/20 02:33:39;;;;;;;2.75;1.42;;;;;;;-146.25;67.27;52163.41;2078756;28;20112;-67
2023/04/20 02:34:41;;;;;;;5.47;1.70;;;;;;;-146.25;67.34;52112.72;2079440;28;20068;-67
2023/04/20 02:35:43;;;;;;;4.70;1.50;;;;;;;-146.25;67.99;52151.25;2071098;28;31446;-67
2023/04/20 02:36:45;;;;;;;1.80;1.15;;;;;;;-146.25;67.86;52122.88;2079520;28;20088;-67
2023/04/20 02:37:47;;;;;;;2.90;1.40;;;;;;;-146.25;67.63;52137.06;2079154;28;20053;-68
2023/04/20 02:38:49;;;;;;;4.53;1.65;;;;;;;-146.25;68.16;52130.97;2079064;28;29203;-67
2023/04/20 02:39:50;;;;;;;6.80;1.75;;;;;;;-146.25;68.19;52147.19;2079335;28;20041;-67
2023/04/20 02:40:52;;;;;;;2.45;1.50;;;;;;;-146.25;68.50;52106.66;2071411;28;29554;-67
2023/04/20 02:41:54;;;;;;;4.55;1.38;;;;;;;-146.25;68.82;52157.34;2070177;28;20042;-67
2023/04/20 02:42:57;;;;;;;2.03;1.40;;;;;;;-146.25;68.67;52159.34;2062872;28;20043;-68
2023/04/20 02:43:59;;;;;;;3.53;1.40;;;;;;;-146.25;68.63;52163.41;2070786;28;20097;-68
2023/04/20 02:45:02;;;;;;;2.80;1.65;;;;;;;-146.25;68.54;52161.38;2070791;28;20157;-67
2023/04/20 02:46:04;;;;;;;3.55;1.75;;;;;;;-146.25;68.60;52179.63;2062903;28;20047;-67
2023/04/20 02:47:06;;;;;;;4.88;1.70;;;;;;;-146.25;68.37;52157.34;2063237;28;20129;-66
2023/04/20 02:48:08;;;;;;;3.80;1.48;;;;;;;-146.25;68.90;52139.09;2079561;28;20046;-67
2023/04/20 02:49:11;;;;;;;3.95;1.30;;;;;;;-146.25;69.02;52165.44;2079399;28;20931;-67
2023/04/20 02:50:16;;;;;;;2.47;1.60;;;;;;;-146.25;69.03;52153.28;2062699;28;20046;-68
2023/04/20 02:51:34;;;;;;;2.65;1.55;;;;;;;-146.25;69.02;52155.31;2059939;28;20042;-67
2023/04/20 02:52:36;;;;;;;2.83;1.60;;;;;;;-146.25;69.47;52169.50;2070865;28;20293;-67
2023/04/20 02:53:38;;;;;;;3.38;1.48;;;;;;;-146.25;69.37;52157.34;2071774;28;20053;-68
2023/04/20 02:54:49;;;;;;;3.47;1.65;;;;;;;-146.25;69.16;52151.25;2072367;28;20043;-68
2023/04/20 02:55:51;;;;;;;4.30;1.52;;;;;;;-146.25;69.90;52120.84;2072802;28;20077;-68
2023/04/20 02:57:04;;;;;;;4.38;1.77;;;;;;;-146.25;70.33;52133.00;2072228;28;20173;-67
2023/04/20 02:58:09;;;;;;;2.75;1.60;;;;;;;-146.25;70.89;52147.19;2064487;28;20165;-68
2023/04/20 02:59:37;;;;;;;4.07;1.52;;;;;;;-146.25;71.16;52139.09;2072355;28;20141;-68
2023/04/20 03:00:48;;;;;;;2.72;1.60;;;;;;;-146.25;71.63;52100.56;2072069;28;20176;-68
2023/04/20 03:01:50;;;;;;;2.92;1.58;;;;;;;-146.25;70.68;52157.34;2056425;28;20868;-67
2023/04/20 03:02:55;;;;;;;5.05;1.60;;;;;;;-146.25;70.93;52153.28;2056960;28;20085;-67
2023/04/20 03:03:58;;;;;;;3.90;1.73;;;;;;;-146.25;71.16;52120.84;2056250;28;20043;-67
2023/04/20 03:05:00;;;;;;;3.90;1.65;;;;;;;-146.25;71.63;52175.56;2064762;28;20144;-67
2023/04/20 03:06:09;;;;;;;4.15;1.52;;;;;;;-146.25;70.83;52141.13;2080268;28;20069;-67
2023/04/20 03:07:14;;;;;;;2.70;1.35;;;;;;;-146.25;70.46;52116.78;2080182;28;20049;-68
2023/04/20 03:08:17;;;;;;;2.92;1.27;;;;;;;-146.25;70.15;52161.38;2080399;28;20042;-67
2023/04/20 03:09:21;;;;;;;2.85;1.63;;;;;;;-146.25;69.73;52165.44;2080551;28;20132;-66
2023/04/20 03:10:30;;;;;;;3.35;1.60;;;;;;;-146.25;69.73;52149.22;2080656;28;20034;-67
2023/04/20 03:11:39;;;;;;;5.40;1.35;;;;;;;-146.25;69.93;52137.06;2071787;28;20959;-67
2023/04/20 03:12:42;;;;;;;2.78;1.75;;;;;;;-146.25;69.28;52151.25;2064704;28;20074;-68
2023/04/20 03:13:56;;;;;;;5.57;1.35;;;;;;;-146.25;68.63;52137.06;2072694;28;20869;-67
2023/04/20 03:14:57;;;;;;;3.72;1.40;;;;;;;-146.25;68.90;52189.78;2071961;28;20042;-67
2023/04/20 03:16:16;;;;;;;5.10;1.73;;;;;;;-146.25;69.20;52120.84;2074714;28;20184;-67
2023/04/20 03:17:22;;;;;;;3.85;1.70;;;;;;;-146.25;69.57;52173.56;2072139;28;20047;-67
2023/04/20 03:18:24;;;;;;;4.97;1.70;;;;;;;-146.25;68.44;52157.34;2072452;28;20176;-68
2023/04/20 03:19:26;;;;;;;3.70;1.50;;;;;;;-146.25;69.24;52153.28;2080282;28;20037;-67
2023/04/20 03:20:28;;;;;;;5.07;1.48;;;;;;;-146.25;68.96;52149.22;2080365;28;20875;-68
2023/04/20 03:21:30;;;;;;;3.83;1.40;;;;;;;-146.25;69.17;52133.00;2079758;28;31524;-67
2023/04/20 03:22:32;;;;;;;4.15;1.70;;;;;;;-146.25;69.21;52153.28;2080191;28;24200;-67
2023/04/20 03:23:35;;;;;;;3.03;1.52;;;;;;;-146.25;69.42;52137.06;2072309;28;20809;-68
2023/04/20 03:24:39;;;;;;;2.42;1.60;;;;;;;-146.25;69.69;52145.16;2072678;28;20495;-68
2023/04/20 03:25:53;;;;;;;5.50;1.58;;;;;;;-146.25;70.04;52210.03;2080309;28;20041;-67
2023/04/20 03:27:06;;;;;;;7.07;1.80;;;;;;;-146.25;70.21;52155.31;2072407;28;20314;-68
2023/04/20 03:28:17;;;;;;;4.10;1.60;;;;;;;-146.25;70.79;52135.03;2065576;28;20047;-66
2023/04/20 03:29:19;;;;;;;3.03;1.60;;;;;;;-146.25;69.93;52179.63;2072535;28;20054;-68
2023/04/20 03:30:23;;;;;;;4.50;1.50;;;;;;;-146.25;69.58;52155.31;2072185;28;20136;-67
2023/04/20 03:31:31;;;;;;;2.95;1.45;;;;;;;-146.25;69.60;52161.38;2073477;28;20908;-68
2023/04/20 03:32:33;;;;;;;6.70;2.13;;;;;;;-146.25;69.73;52124.91;2072875;28;20038;-67
2023/04/20 03:33:35;;;;;;;4.75;1.52;;;;;;;-146.25;69.32;52177.59;2072336;28;20085;-68
2023/04/20 03:34:37;;;;;;;3.47;1.52;;;;;;;-146.25;68.63;52153.28;2072341;28;20842;-67
2023/04/20 03:35:39;;;;;;;5.78;1.88;;;;;;;-146.25;68.26;52153.28;2072159;28;20053;-68
2023/04/20 03:36:41;;;;;;;3.42;1.52;;;;;;;-146.25;68.11;52139.09;2080521;28;20908;-68
2023/04/20 03:37:45;;;;;;;3.78;1.52;;;;;;;-146.25;67.86;52177.59;2071752;28;36301;-68
2023/04/20 03:38:47;;;;;;;4.13;1.50;;;;;;;-146.25;67.44;52173.56;2064413;28;20038;-67
2023/04/20 03:39:49;;;;;;;3.90;1.48;;;;;;;-146.25;67.57;52171.53;2064177;28;20088;-67
2023/04/20 03:40:50;;;;;;;4.57;1.58;;;;;;;-146.25;67.71;52159.34;2072184;28;21439;-67
2023/04/20 03:41:52;;;;;;;3.83;1.60;;;;;;;-146.25;67.32;52169.50;2072118;28;20831;-68
2023/04/20 03:42:54;;;;;;;3.83;1.23;;;;;;;-146.25;67.23;52141.13;2071736;28;25257;-68
2023/04/20 03:43:59;;;;;;;5.13;1.50;;;;;;;-146.25;67.18;52130.97;2080251;28;20089;-68
2023/04/20 03:45:00;;;;;;;6.00;1.50;;;;;;;-146.25;67.30;52153.28;2071962;28;20050;-68
2023/04/20 03:46:02;;;;;;;3.13;1.60;;;;;;;-146.25;67.72;52159.34;2064122;28;20090;-68
2023/04/20 03:47:05;;;;;;;6.47;1.77;;;;;;;-146.25;67.52;52118.81;2072046;28;20116;-68
2023/04/20 03:48:10;;;;;;;2.78;1.63;;;;;;;-146.25;67.51;52130.97;2072112;28;20038;-68
2023/04/20 03:49:11;;;;;;;4.90;1.60;;;;;;;-146.25;67.43;52169.50;2072331;28;29762;-68
2023/04/20 03:50:16;;;;;;;4.72;1.58;;;;;;;-146.25;67.50;52118.81;2079965;28;20138;-68
2023/04/20 03:51:20;;;;;;;6.05;1.40;;;;;;;-146.25;67.38;52126.91;2071689;28;26871;-68
2023/04/20 03:52:22;;;;;;;3.92;1.70;;;;;;;-146.25;67.82;52126.91;2071749;28;36727;-68
2023/04/20 03:53:25;;;;;;;3.05;1.60;;;;;;;-146.25;67.71;52163.41;2079979;28;20985;-68
2023/04/20 03:54:26;;;;;;;3.22;1.45;;;;;;;-146.25;67.45;52130.97;2071612;28;29715;-67
2023/04/20 03:55:28;;;;;;;4.53;1.50;;;;;;;-146.25;67.61;52130.97;2063700;28;20153;-68
2023/04/20 03:56:36;;;;;;;5.22;1.70;;;;;;;-146.25;67.82;52118.81;2073099;28;20186;-68
2023/04/20 03:57:38;;;;;;;3.75;1.45;;;;;;;-146.25;67.87;52177.59;2080546;28;20042;-68
2023/04/20 03:58:41;;;;;;;2.70;1.35;;;;;;;-146.25;68.05;52173.56;2071912;28;20172;-65
2023/04/20 03:59:49;;;;;;;4.18;1.80;;;;;;;-146.25;67.92;52141.13;2064271;28;20097;-68
2023/04/20 04:01:06;;;;;;;6.00;1.50;;;;;;;-146.25;67.98;52157.34;2072446;28;20043;-68
2023/04/20 04:02:12;;;;;;;2.80;1.40;;;;;;;-146.25;68.00;52157.34;2071707;28;20129;-68
2023/04/20 04:03:16;;;;;;;4.95;1.60;;;;;;;-146.25;67.66;52141.13;2072445;28;20039;-68
2023/04/20 04:04:18;;;;;;;3.17;1.70;;;;;;;-146.25;67.77;52155.31;2080448;28;20078;-68
2023/04/20 04:05:20;;;;;;;4.18;1.30;;;;;;;-146.25;67.90;52153.28;2071538;28;20039;-68
2023/04/20 04:06:23;;;;;;;3.47;1.40;;;;;;;-146.25;68.19;52149.22;2072069;28;20042;-68
2023/04/20 04:07:25;;;;;;;2.92;1.50;;;;;;;-146.25;67.65;52133.00;2072063;28;20090;-68
2023/04/20 04:08:29;;;;;;;4.25;1.60;;;;;;;-146.25;67.90;52145.16;2063789;28;20169;-68
2023/04/20 04:09:32;;;;;;;1.98;1.30;;;;;;;-146.25;67.45;52177.59;2072183;28;20065;-68
2023/04/20 04:10:39;;;;;;;3.47;1.52;;;;;;;-146.25;67.59;52126.91;2071998;28;20882;-68
2023/04/20 04:11:43;;;;;;;2.63;1.50;;;;;;;-146.25;67.98;52173.56;2072804;28;20172;-68
2023/04/20 04:12:45;;;;;;;2.90;1.58;;;;;;;-146.25;67.92;52116.78;2071664;28;20121;-68
2023/04/20 04:13:47;;;;;;;4.47;1.58;;;;;;;-146.25;67.54;52151.25;2063772;28;20277;-68
2023/04/20 04:14:49;;;;;;;2.55;1.45;;;;;;;-146.25;67.87;52181.66;2071602;28;20532;-68
2023/04/20 04:15:53;;;;;;;3.10;1.40;;;;;;;-146.25;67.66;52143.13;2080056;28;20225;-68
2023/04/20 04:16:55;;;;;;;4.13;1.63;;;;;;;-146.25;67.68;52135.03;2071844;28;20034;-66
2023/04/20 04:17:57;;;;;;;3.55;1.52;;;;;;;-146.25;68.08;52171.53;2072015;28;20050;-68
2023/04/20 04:18:59;;;;;;;3.35;1.50;;;;;;;-146.25;68.22;52157.34;2071727;28;20034;-68
2023/04/20 04:20:01;;;;;;;5.55;1.40;;;;;;;-146.25;67.71;52155.31;2071827;28;20043;-68
2023/04/20 04:21:05;;;;;;;2.97;1.35;;;;;;;-146.25;67.45;52161.38;2072848;28;20046;-68
2023/04/20 04:22:08;;;;;;;6.78;1.80;;;;;;;-146.25;67.58;52161.38;2071198;28;20050;-68
2023/04/20 04:23:17;;;;;;;5.20;1.75;;;;;;;-146.25;66.84;52110.69;2066169;28;20039;-68
2023/04/20 04:24:25;;;;;;;3.00;1.50;;;;;;;-146.25;66.53;52169.50;2079707;28;20042;-68
2023/04/20 04:25:39;;;;;;;4.60;1.63;;;;;;;-146.25;66.41;52141.13;2071604;28;20117;-68
2023/04/20 04:26:42;;;;;;;3.50;1.45;;;;;;;-146.25;66.23;52169.50;2073075;28;20896;-68
2023/04/20 04:27:45;;;;;;;5.57;1.27;;;;;;;-146.25;66.67;52141.13;2071705;28;20057;-68
2023/04/20 04:28:48;;;;;;;2.55;1.10;;;;;;;-146.25;66.30;52169.50;2071987;28;20046;-68
2023/04/20 04:29:55;;;;;;;3.05;1.65;;;;;;;-146.25;66.48;52161.38;2071353;28;20045;-68
2023/04/20 04:31:00;;;;;;;4.65;1.58;;;;;;;-146.25;66.31;52175.56;2072433;28;20938;-68
2023/04/20 04:32:04;;;;;;;5.47;1.60;;;;;;;-146.25;66.29;52161.38;2079802;28;20888;-68
2023/04/20 04:33:08;;;;;;;2.20;1.20;;;;;;;-146.25;65.94;52157.34;2063117;28;20094;-68
2023/04/20 04:34:20;;;;;;;3.67;1.30;;;;;;;-146.25;66.76;52151.25;2056508;28;20141;-67
2023/04/20 04:35:25;;;;;;;3.22;1.75;;;;;;;-146.25;67.00;52177.59;2072053;28;20035;-67
2023/04/20 04:36:35;;;;;;;3.83;1.52;;;;;;;-146.25;67.86;52169.50;2064842;28;20058;-68
2023/04/20 04:37:46;;;;;;;4.38;1.58;;;;;;;-146.25;69.16;52147.19;2065803;28;20031;-68
2023/04/20 04:38:51;;;;;;;3.65;1.60;;;;;;;-146.25;69.25;52139.09;2071762;28;20086;-68
2023/04/20 04:39:57;;;;;;;2.83;1.38;;;;;;;-146.25;69.85;52161.38;2079913;28;20049;-67
2023/04/20 04:41:07;;;;;;;4.03;1.38;;;;;;;-146.25;70.61;52151.25;2080016;28;20065;-68
2023/04/20 04:42:09;;;;;;;4.72;1.42;;;;;;;-146.25;71.52;52153.28;2079324;28;20954;-68
2023/04/20 04:43:15;;;;;;;2.40;1.45;;;;;;;-146.25;71.31;52128.94;2079500;28;20092;-68
2023/04/20 04:44:24;;;;;;;3.70;1.70;;;;;;;-146.25;72.89;52169.50;2080179;28;20034;-68
2023/04/20 04:45:27;;;;;;;3.67;1.30;;;;;;;-146.25;73.66;52159.34;2079675;28;20751;-67
2023/04/20 04:46:29;;;;;;;4.50;1.60;;;;;;;-146.25;73.41;52157.34;2079578;28;20053;-69
2023/04/20 04:47:34;;;;;;;4.13;1.63;;;;;;;-146.25;74.35;52169.50;2079930;28;20977;-67
2023/04/20 04:48:39;;;;;;;4.68;1.77;;;;;;;-146.25;74.08;52151.25;2078985;28;29978;-67
2023/04/20 04:49:41;;;;;;;3.75;1.58;;;;;;;-146.25;73.93;52171.53;2071903;28;26256;-68
2023/04/20 04:50:45;;;;;;;4.15;2.28;;;;;;;-146.25;76.58;52161.38;2071682;28;30069;-68
2023/04/20 04:51:47;;;;;;;4.03;2.10;;;;;;;-146.25;77.21;52130.97;2079576;28;24947;-68
2023/04/20 04:52:49;;;;;;;4.38;2.22;;;;;;;-146.25;78.79;52120.84;2070718;28;34439;-68